New Richmond, Canada
Current Conditions -  °F | °C
As of 8:00 AM on Thursday 30 Oct 2014 (Local Time) from CZBF Reporting Station
Few Clouds Few Clouds  
Wind Chill: 39°   Ceiling: Unl
Heat Index: 45°   Visibility: 15mi
Dew Point: 37°   Wind: 12mph
Humidity: 76%   Direction: 270°W
Pressure: 29.7"   Gusts: 18mph
Location:  48.17°N, 65.83°W
Report Text: CZBF 301200Z 27010G16KT 15SM FEW013 FEW070 FEW220 07/03 A2970 RMK CF1AC1CI1 CF TR AC TR CI TR SLP060
Loading
Personal Weather Stations






























Interactive Weather Map
Tropical Storm Tracking
New forecast layout! Learn more

10-Day Weather Forecast

Advertisements
Track Severe Weather on mobile